Time;durP1;ratioP1;P1;durP2;ratioP2;P2;SDS_P1;SDS_P2;PMS_P1;PMS_P2;Temp;Humidity;BMP_temperature;BMP_pressure;BME280_temperature;BME280_humidity;BME280_pressure;Samples;Min_cycle;Max_cycle;Signal;HPM_P1;HPM_P2
2023/07/19 00:02:21;;;;;;;6.53;3.17;;;;;;;19.68;58.39;101343.28;5014971;28;20029;-81
2023/07/19 00:04:47;;;;;;;8.20;3.28;;;;;;;19.35;59.71;101342.84;5012945;28;20091;-81
2023/07/19 00:07:12;;;;;;;6.30;3.15;;;;;;;19.13;60.42;101341.72;5019903;28;20053;-81
2023/07/19 00:09:38;;;;;;;4.47;2.70;;;;;;;19.10;60.25;101334.72;5017010;28;20460;-80
2023/07/19 00:12:04;;;;;;;6.03;2.78;;;;;;;18.93;61.26;101343.03;5016006;28;20091;-81
2023/07/19 00:14:29;;;;;;;4.53;3.13;;;;;;;18.94;61.07;101328.72;5017731;28;20055;-80
2023/07/19 00:16:54;;;;;;;5.10;3.15;;;;;;;18.47;62.29;101332.69;5034614;28;20048;-80
2023/07/19 00:19:19;;;;;;;5.50;2.88;;;;;;;18.14;63.44;101336.59;5016473;28;20511;-81
2023/07/19 00:21:45;;;;;;;5.22;3.30;;;;;;;17.85;64.63;101323.22;5022164;28;20018;-81
2023/07/19 00:24:10;;;;;;;4.15;3.42;;;;;;;17.74;65.06;101336.41;5026242;28;20115;-81
2023/07/19 00:26:35;;;;;;;6.43;3.15;;;;;;;17.98;63.23;101322.47;5020269;28;20125;-81
2023/07/19 00:29:01;;;;;;;6.13;3.00;;;;;;;18.33;61.81;101313.03;5019559;28;20071;-81
2023/07/19 00:31:26;;;;;;;3.45;2.58;;;;;;;18.58;61.24;101319.44;5022038;28;20544;-81
2023/07/19 00:33:51;;;;;;;8.18;3.47;;;;;;;18.59;61.96;101315.81;5033064;28;20029;-81
2023/07/19 00:36:16;;;;;;;4.53;2.85;;;;;;;18.60;61.96;101313.03;5024618;28;20112;-80
2023/07/19 00:38:42;;;;;;;4.63;2.75;;;;;;;18.68;61.15;101304.47;5019934;28;20037;-80
2023/07/19 00:41:07;;;;;;;2.95;2.63;;;;;;;18.67;60.52;101302.78;5036308;28;20057;-80
2023/07/19 00:43:32;;;;;;;4.72;2.70;;;;;;;18.68;60.80;101296.44;5029208;28;20558;-80
2023/07/19 00:45:58;;;;;;;7.22;3.33;;;;;;;18.66;61.19;101293.03;5024401;28;20063;-81
2023/07/19 00:48:24;;;;;;;7.10;3.63;;;;;;;18.63;61.63;101293.22;5026984;28;20078;-81
2023/07/19 00:50:50;;;;;;;4.32;3.17;;;;;;;18.59;61.91;101294.38;5025813;28;20040;-80
2023/07/19 00:53:17;;;;;;;7.93;3.28;;;;;;;18.62;61.79;101288.84;5020826;28;20053;-80
2023/07/19 00:55:48;;;;;;;3.63;3.25;;;;;;;18.54;61.90;101278.63;5021133;28;20029;-80
2023/07/19 00:58:14;;;;;;;3.63;3.08;;;;;;;18.47;62.64;101282.69;5020460;28;20026;-80
2023/07/19 01:00:39;;;;;;;4.93;3.22;;;;;;;18.39;62.82;101282.31;5018427;28;20022;-81
2023/07/19 01:03:05;;;;;;;4.38;3.13;;;;;;;18.35;62.92;101286.16;5019174;28;20441;-80
2023/07/19 01:05:30;;;;;;;3.53;3.20;;;;;;;18.05;63.70;101287.19;5023099;28;20030;-80
2023/07/19 01:07:58;;;;;;;3.70;3.28;;;;;;;17.76;64.09;101286.34;5049597;28;20013;-80
2023/07/19 01:10:24;;;;;;;4.55;2.88;;;;;;;17.73;64.35;101281.22;5022177;28;20383;-81
2023/07/19 01:13:09;;;;;;;3.88;3.00;;;;;;;17.84;63.58;101281.38;5023476;28;20021;-81
2023/07/19 01:15:36;;;;;;;4.60;3.40;;;;;;;17.60;65.09;101277.56;5018119;28;20079;-81
2023/07/19 01:18:01;;;;;;;4.63;2.90;;;;;;;17.64;64.87;101273.75;5028621;28;20108;-81
2023/07/19 01:20:27;;;;;;;4.78;3.60;;;;;;;17.79;64.43;101285.31;5019150;28;20125;-80
2023/07/19 01:22:54;;;;;;;4.18;3.25;;;;;;;17.85;63.99;101271.53;5024602;28;20777;-80
2023/07/19 01:25:19;;;;;;;3.92;3.58;;;;;;;17.65;65.57;101271.94;5025300;28;20053;-81
2023/07/19 01:27:44;;;;;;;5.95;4.13;;;;;;;17.49;66.03;101267.56;5016617;28;20021;-81
2023/07/19 01:30:10;;;;;;;5.13;3.60;;;;;;;17.30;66.33;101266.97;5026226;28;20460;-81
2023/07/19 01:32:36;;;;;;;4.15;3.25;;;;;;;17.27;66.85;101261.81;5021851;28;20396;-81
2023/07/19 01:35:01;;;;;;;5.40;3.80;;;;;;;17.22;67.21;101259.41;5027239;28;20068;-81
2023/07/19 01:37:29;;;;;;;5.45;3.55;;;;;;;17.25;66.70;101255.69;5026251;28;20425;-81
2023/07/19 01:39:55;;;;;;;5.90;3.72;;;;;;;17.28;66.93;101259.03;5026789;28;20053;-81
2023/07/19 01:42:20;;;;;;;5.38;3.80;;;;;;;17.27;66.60;101257.31;5024414;28;20076;-81
2023/07/19 01:44:45;;;;;;;5.38;3.60;;;;;;;17.34;65.95;101249.75;5027865;28;20490;-81
2023/07/19 01:47:10;;;;;;;5.50;3.80;;;;;;;17.22;67.10;101242.53;5023462;28;20069;-81
2023/07/19 01:49:38;;;;;;;5.60;3.30;;;;;;;17.19;66.94;101256.06;5017639;28;20030;-81
2023/07/19 01:52:04;;;;;;;7.47;3.55;;;;;;;17.26;67.19;101257.41;5023017;28;20401;-81
2023/07/19 01:54:29;;;;;;;8.05;3.47;;;;;;;17.37;65.84;101244.25;5022045;28;20025;-81
2023/07/19 01:56:54;;;;;;;4.20;3.40;;;;;;;17.44;65.70;101253.63;5013975;28;20026;-81
2023/07/19 01:59:20;;;;;;;5.25;3.53;;;;;;;17.48;65.76;101247.09;5025596;28;20103;-81
2023/07/19 02:01:45;;;;;;;8.38;3.22;;;;;;;17.57;65.60;101251.88;5014013;28;20040;-80
2023/07/19 02:04:10;;;;;;;4.68;2.95;;;;;;;17.73;65.01;101265.19;5023403;28;20379;-80
2023/07/19 02:06:36;;;;;;;4.65;3.25;;;;;;;17.76;64.92;101258.75;5025235;28;20036;-81
2023/07/19 02:09:01;;;;;;;4.63;3.30;;;;;;;17.80;64.57;101261.13;5021452;28;20025;-80
2023/07/19 02:11:26;;;;;;;4.18;3.42;;;;;;;17.75;65.31;101255.22;5032846;28;20034;-80
2023/07/19 02:13:51;;;;;;;7.70;3.13;;;;;;;17.74;65.14;101245.50;5022816;28;20552;-80
2023/07/19 02:16:17;;;;;;;7.13;3.33;;;;;;;17.78;64.76;101239.00;5018977;28;20041;-80
2023/07/19 02:18:42;;;;;;;4.13;3.45;;;;;;;17.84;65.33;101243.09;5030210;28;20520;-81
2023/07/19 02:21:07;;;;;;;6.20;3.10;;;;;;;17.81;65.05;101245.94;5033519;28;20026;-80
2023/07/19 02:23:33;;;;;;;5.82;3.63;;;;;;;17.89;64.80;101246.31;5017376;28;20040;-80
2023/07/19 02:25:59;;;;;;;4.45;3.47;;;;;;;17.88;64.29;101239.25;5018893;28;20030;-80
2023/07/19 02:28:24;;;;;;;5.57;3.20;;;;;;;17.97;63.35;101236.00;5027651;28;20555;-81
2023/07/19 02:30:49;;;;;;;5.43;3.15;;;;;;;17.97;64.67;101230.63;5024469;28;20025;-81
2023/07/19 02:33:15;;;;;;;5.57;3.50;;;;;;;17.74;65.33;101240.16;5025365;28;20432;-80
2023/07/19 02:35:41;;;;;;;6.85;3.63;;;;;;;17.57;66.10;101235.81;5022346;28;20037;-80
2023/07/19 02:38:07;;;;;;;5.50;3.50;;;;;;;17.38;66.37;101237.06;5028201;28;20028;-81
2023/07/19 02:40:33;;;;;;;8.35;3.80;;;;;;;17.30;66.65;101233.09;5036299;28;20029;-80
2023/07/19 02:42:58;;;;;;;5.35;3.65;;;;;;;17.40;66.57;101227.16;5024374;28;20076;-80
2023/07/19 02:45:24;;;;;;;11.70;3.95;;;;;;;17.52;66.15;101232.59;5028255;28;20121;-80
2023/07/19 02:47:49;;;;;;;5.63;3.92;;;;;;;17.50;67.24;101229.16;5025357;28;20022;-80
2023/07/19 02:50:15;;;;;;;5.10;3.50;;;;;;;17.55;66.15;101232.41;5021492;28;20028;-80
2023/07/19 02:52:41;;;;;;;4.85;3.55;;;;;;;17.61;66.88;101244.50;5024019;28;20021;-81
2023/07/19 02:55:07;;;;;;;5.95;3.80;;;;;;;17.46;66.54;101238.31;5030022;28;20020;-80
2023/07/19 02:57:32;;;;;;;6.00;3.55;;;;;;;17.33;67.07;101232.03;5025584;28;20025;-81
2023/07/19 02:59:57;;;;;;;7.38;4.25;;;;;;;17.33;67.19;101240.91;5026501;28;20045;-81
2023/07/19 03:02:23;;;;;;;4.43;4.03;;;;;;;17.43;67.24;101241.19;5019016;28;20927;-80
2023/07/19 03:04:48;;;;;;;5.72;3.80;;;;;;;17.56;67.18;101239.47;5017639;28;20030;-80
2023/07/19 03:07:14;;;;;;;5.68;3.45;;;;;;;17.67;66.34;101241.44;5032146;28;20033;-81
2023/07/19 03:09:39;;;;;;;5.93;3.70;;;;;;;17.71;66.74;101232.28;5022876;28;20052;-81
2023/07/19 03:12:05;;;;;;;7.30;4.60;;;;;;;17.63;67.08;101234.59;5024140;28;20022;-80
2023/07/19 03:14:31;;;;;;;4.68;3.63;;;;;;;17.67;66.00;101245.94;5018931;28;20030;-81
2023/07/19 03:16:56;;;;;;;4.70;3.47;;;;;;;17.55;67.12;101243.09;5024171;28;20026;-80
2023/07/19 03:19:21;;;;;;;5.15;3.78;;;;;;;17.28;68.25;101232.31;5031704;28;20034;-81
2023/07/19 03:21:47;;;;;;;6.88;3.70;;;;;;;17.33;68.15;101242.72;5029352;28;20033;-80
2023/07/19 03:24:12;;;;;;;5.28;3.45;;;;;;;17.50;67.04;101244.34;5024868;28;20084;-80
2023/07/19 03:26:38;;;;;;;6.55;3.28;;;;;;;17.65;66.43;101253.22;5010109;28;20024;-81
2023/07/19 03:29:03;;;;;;;5.10;4.03;;;;;;;17.74;65.86;101239.28;5022342;28;20964;-81
2023/07/19 03:31:28;;;;;;;9.23;4.20;;;;;;;17.62;66.53;101246.22;5010930;28;20041;-81
2023/07/19 03:33:53;;;;;;;6.90;4.13;;;;;;;17.58;66.87;101253.59;5018168;28;20025;-81
2023/07/19 03:36:19;;;;;;;5.32;3.80;;;;;;;17.59;67.49;101259.81;5029097;28;20033;-80
2023/07/19 03:38:44;;;;;;;7.55;4.70;;;;;;;17.60;66.73;101262.38;5040251;28;20414;-80
2023/07/19 03:41:09;;;;;;;8.45;4.18;;;;;;;17.60;67.67;101256.16;5022572;28;21886;-81
2023/07/19 03:43:36;;;;;;;7.30;4.28;;;;;;;17.30;68.52;101257.13;5022267;28;20112;-81
2023/07/19 03:46:01;;;;;;;6.18;3.72;;;;;;;17.36;68.09;101247.88;5017967;28;20021;-81
2023/07/19 03:48:27;;;;;;;6.03;4.50;;;;;;;17.46;69.18;101253.50;5030185;28;20076;-81
2023/07/19 03:50:57;;;;;;;5.93;4.50;;;;;;;17.54;68.30;101252.06;5032534;28;20071;-81
2023/07/19 03:53:22;;;;;;;5.85;3.92;;;;;;;17.63;68.05;101258.66;5024134;28;20032;-81
2023/07/19 03:55:58;;;;;;;5.47;3.88;;;;;;;17.68;68.42;101259.22;5014159;28;20087;-81
2023/07/19 03:58:24;;;;;;;5.97;4.15;;;;;;;17.71;67.80;101258.16;5041566;28;20082;-81
2023/07/19 04:00:54;;;;;;;5.63;4.50;;;;;;;17.54;68.43;101260.09;5022866;28;20469;-81
2023/07/19 04:03:20;;;;;;;5.75;4.38;;;;;;;17.48;69.08;101256.94;5014833;28;20530;-81
2023/07/19 04:05:45;;;;;;;6.68;4.53;;;;;;;17.41;69.11;101251.13;5012755;28;20536;-81
2023/07/19 04:08:13;;;;;;;5.82;4.40;;;;;;;17.39;70.06;101249.47;5028532;28;20021;-80
2023/07/19 04:10:38;;;;;;;5.50;4.40;;;;;;;17.26;69.74;101258.28;5019181;28;20532;-81
2023/07/19 04:13:04;;;;;;;5.72;4.55;;;;;;;17.29;70.90;101254.53;5018223;28;20037;-81
2023/07/19 04:15:29;;;;;;;6.85;4.60;;;;;;;17.49;69.72;101258.66;5021095;28;20025;-80
2023/07/19 04:17:55;;;;;;;7.82;4.95;;;;;;;17.51;69.33;101246.91;5026505;28;20051;-81
2023/07/19 04:20:22;;;;;;;8.50;5.45;;;;;;;17.33;70.11;101243.56;5021037;28;20276;-81
2023/07/19 04:22:48;;;;;;;9.65;4.82;;;;;;;17.29;70.89;101258.06;5025732;28;20025;-81
2023/07/19 04:25:13;;;;;;;6.18;4.70;;;;;;;17.37;69.84;101243.38;5016118;28;20493;-81
2023/07/19 04:27:38;;;;;;;6.35;4.50;;;;;;;17.51;70.53;101254.06;5017644;28;20028;-81
2023/07/19 04:30:04;;;;;;;9.10;5.05;;;;;;;17.63;70.06;101249.78;5019861;28;20036;-81
2023/07/19 04:32:30;;;;;;;9.23;4.82;;;;;;;17.70;70.12;101251.97;5034638;28;20480;-81
2023/07/19 04:34:55;;;;;;;9.77;5.28;;;;;;;17.71;69.62;101256.34;5029804;28;20436;-81
2023/07/19 04:37:21;;;;;;;6.82;5.00;;;;;;;17.75;69.16;101251.69;5035738;28;20045;-81
2023/07/19 04:39:46;;;;;;;6.88;5.60;;;;;;;17.68;69.94;101248.53;5025073;28;20053;-80
2023/07/19 04:42:11;;;;;;;8.23;5.50;;;;;;;17.75;69.39;101254.38;5028187;28;20061;-81
2023/07/19 04:44:38;;;;;;;5.82;5.25;;;;;;;17.80;70.19;101258.47;5033388;28;20060;-81
2023/07/19 04:47:04;;;;;;;9.77;5.60;;;;;;;17.87;69.97;101268.78;5028019;28;20049;-81
2023/07/19 04:49:30;;;;;;;7.15;5.68;;;;;;;17.92;70.12;101261.34;5023607;28;20052;-81
2023/07/19 04:51:55;;;;;;;6.72;5.20;;;;;;;17.97;69.55;101256.53;5023349;28;20477;-81
2023/07/19 04:54:20;;;;;;;9.60;5.53;;;;;;;18.06;69.69;101272.84;5029094;28;20025;-81
2023/07/19 04:56:46;;;;;;;7.88;5.38;;;;;;;18.08;69.26;101265.56;5023792;28;20022;-81
2023/07/19 04:59:11;;;;;;;7.03;5.50;;;;;;;18.08;68.59;101264.72;5023463;28;20037;-81
2023/07/19 05:01:36;;;;;;;6.25;5.68;;;;;;;18.12;67.27;101268.91;5022661;28;20032;-81
2023/07/19 05:04:02;;;;;;;8.27;6.70;;;;;;;17.88;67.96;101273.19;5019559;28;20037;-81
2023/07/19 05:06:29;;;;;;;7.03;5.82;;;;;;;17.78;68.85;101281.78;5032045;28;20489;-81
2023/07/19 05:08:54;;;;;;;7.53;6.72;;;;;;;17.84;68.79;101269.84;5027821;28;20033;-81
2023/07/19 05:11:20;;;;;;;12.63;6.55;;;;;;;17.89;68.75;101272.22;5033074;28;20017;-81
2023/07/19 05:13:45;;;;;;;8.48;6.97;;;;;;;17.94;69.38;101275.44;5040351;28;20059;-81
2023/07/19 05:16:11;;;;;;;8.70;7.05;;;;;;;18.06;68.72;101272.84;5021098;28;20145;-81
2023/07/19 05:18:36;;;;;;;8.75;6.03;;;;;;;18.25;67.62;101279.69;5027082;28;20075;-81
2023/07/19 05:21:01;;;;;;;11.25;6.50;;;;;;;18.34;67.12;101269.25;5025816;28;20541;-81
2023/07/19 05:23:27;;;;;;;8.98;7.20;;;;;;;18.32;67.55;101272.97;5030492;28;20028;-81
2023/07/19 05:25:52;;;;;;;12.07;6.65;;;;;;;18.43;66.87;101278.50;5027602;28;20119;-81
2023/07/19 05:28:20;;;;;;;15.00;6.85;;;;;;;18.59;65.75;101275.63;5023834;28;20492;-81
2023/07/19 05:30:45;;;;;;;11.60;7.25;;;;;;;18.63;66.32;101277.16;5017859;28;20461;-81
2023/07/19 05:33:11;;;;;;;8.35;6.80;;;;;;;18.74;65.37;101277.31;5026615;28;20037;-81
2023/07/19 05:35:36;;;;;;;8.02;7.10;;;;;;;18.71;65.50;101272.19;5032928;28;20483;-81
2023/07/19 05:38:01;;;;;;;12.80;7.53;;;;;;;18.72;65.38;101265.84;5037815;28;20017;-81
2023/07/19 05:40:26;;;;;;;9.23;6.93;;;;;;;18.88;65.75;101271.00;5036527;28;20388;-80
2023/07/19 05:42:52;;;;;;;10.68;7.03;;;;;;;19.04;64.47;101266.34;5023532;28;20132;-81
2023/07/19 05:45:17;;;;;;;10.52;6.63;;;;;;;19.17;64.21;101262.81;5028008;28;20032;-81
2023/07/19 05:47:42;;;;;;;9.05;7.32;;;;;;;19.26;63.77;101262.19;5024908;28;20090;-81
2023/07/19 05:50:08;;;;;;;11.32;7.25;;;;;;;19.32;63.51;101259.06;5027048;28;20022;-81
2023/07/19 05:52:33;;;;;;;11.82;7.60;;;;;;;19.44;63.68;101271.59;5025287;28;20037;-81
2023/07/19 05:54:58;;;;;;;11.50;7.47;;;;;;;19.44;63.58;101268.91;5026782;28;20595;-81
2023/07/19 05:57:24;;;;;;;9.50;7.30;;;;;;;19.51;61.94;101261.31;5017353;28;20049;-81
2023/07/19 05:59:49;;;;;;;11.20;7.68;;;;;;;19.58;63.43;101259.88;5021315;28;20528;-81
2023/07/19 06:02:15;;;;;;;13.32;8.38;;;;;;;19.69;61.06;101262.72;5019280;28;20033;-81
2023/07/19 06:04:40;;;;;;;11.70;8.10;;;;;;;19.79;61.56;101271.81;5021328;28;20408;-81
2023/07/19 06:07:05;;;;;;;12.25;8.07;;;;;;;19.79;62.11;101277.16;5014790;28;20061;-81
2023/07/19 06:09:30;;;;;;;8.25;6.80;;;;;;;19.83;62.04;101273.31;5026110;28;20041;-81
2023/07/19 06:11:57;;;;;;;8.10;7.25;;;;;;;19.90;61.92;101272.84;5028201;28;20022;-81
2023/07/19 06:14:23;;;;;;;12.20;8.18;;;;;;;19.90;60.92;101267.47;5017873;28;20427;-81
2023/07/19 06:16:48;;;;;;;10.27;7.25;;;;;;;20.04;61.00;101278.06;5029431;28;20555;-81
2023/07/19 06:19:16;;;;;;;14.38;8.27;;;;;;;20.09;61.10;101266.03;5023122;28;20121;-81
2023/07/19 06:21:41;;;;;;;12.00;8.32;;;;;;;20.17;60.28;101262.78;5022993;28;20473;-81
2023/07/19 06:24:07;;;;;;;12.52;8.25;;;;;;;20.21;60.58;101268.78;5024207;28;20072;-81
2023/07/19 06:26:32;;;;;;;9.40;7.00;;;;;;;20.29;60.24;101259.19;5033819;28;20082;-81
2023/07/19 06:28:57;;;;;;;10.85;7.53;;;;;;;20.45;58.77;101255.38;5030822;28;20054;-81
2023/07/19 06:31:23;;;;;;;10.35;7.38;;;;;;;20.64;59.34;101258.41;5027039;28;20466;-81
2023/07/19 06:33:48;;;;;;;11.20;7.35;;;;;;;20.82;58.59;101257.00;5025456;28;20029;-80
2023/07/19 06:36:13;;;;;;;12.60;7.07;;;;;;;20.93;57.38;101255.31;5030967;28;20381;-80
2023/07/19 06:38:39;;;;;;;10.13;6.32;;;;;;;20.88;57.28;101256.53;5021719;28;20034;-81
2023/07/19 06:41:04;;;;;;;10.38;6.70;;;;;;;20.96;57.75;101261.31;5024086;28;20045;-80
2023/07/19 06:43:30;;;;;;;9.45;6.28;;;;;;;21.05;57.22;101263.28;5025889;28;20526;-80
2023/07/19 06:45:55;;;;;;;10.30;6.10;;;;;;;21.06;57.75;101262.31;5025347;28;20498;-80
2023/07/19 06:48:21;;;;;;;9.57;6.10;;;;;;;21.12;57.34;101264.56;5023698;28;20013;-80
2023/07/19 06:50:47;;;;;;;10.10;6.03;;;;;;;21.16;57.78;101259.75;5028825;28;20039;-80
2023/07/19 06:53:12;;;;;;;10.93;5.97;;;;;;;21.29;56.40;101260.53;5024201;28;20060;-80
2023/07/19 06:55:38;;;;;;;8.05;5.65;;;;;;;21.40;56.55;101267.75;5017620;28;20105;-80
2023/07/19 06:58:04;;;;;;;11.98;5.97;;;;;;;21.52;55.56;101260.56;5028760;28;20030;-80
2023/07/19 07:00:29;;;;;;;7.82;5.45;;;;;;;21.61;55.03;101263.38;5020859;28;20498;-80
2023/07/19 07:02:54;;;;;;;11.13;5.47;;;;;;;21.70;55.12;101269.88;5015046;28;20056;-80
2023/07/19 07:05:19;;;;;;;10.77;5.03;;;;;;;21.77;54.40;101267.53;5018672;28;20378;-80
2023/07/19 07:07:45;;;;;;;7.88;5.18;;;;;;;21.95;53.91;101270.56;5018429;28;20116;-80
2023/07/19 07:10:10;;;;;;;7.85;5.07;;;;;;;22.15;53.26;101273.41;5015987;28;20022;-80
2023/07/19 07:12:36;;;;;;;11.43;4.80;;;;;;;22.36;53.03;101262.69;5020770;28;20159;-80
2023/07/19 07:15:02;;;;;;;8.35;5.10;;;;;;;22.51;52.47;101268.63;5016507;28;20030;-80
2023/07/19 07:17:28;;;;;;;14.40;5.70;;;;;;;22.59;52.36;101273.38;5021677;28;20029;-80
2023/07/19 07:19:53;;;;;;;10.23;5.35;;;;;;;22.71;53.54;101274.16;5015166;28;20033;-80
2023/07/19 07:22:20;;;;;;;7.55;5.53;;;;;;;22.59;52.43;101271.53;5024781;28;20113;-80
2023/07/19 07:24:45;;;;;;;9.57;5.03;;;;;;;22.57;52.98;101276.22;5028145;28;20022;-80
2023/07/19 07:27:10;;;;;;;9.38;5.15;;;;;;;22.72;52.32;101278.59;5049459;28;20102;-80
2023/07/19 07:29:36;;;;;;;9.90;5.45;;;;;;;22.65;52.48;101272.84;5026131;28;20033;-80
2023/07/19 07:32:02;;;;;;;8.40;5.18;;;;;;;22.76;53.43;101256.66;5025027;28;20516;-81
2023/07/19 07:34:27;;;;;;;6.93;4.18;;;;;;;22.92;51.86;101267.00;5032827;28;20112;-82
2023/07/19 07:36:52;;;;;;;8.25;4.18;;;;;;;22.97;51.96;101270.16;5022816;28;20510;-81
2023/07/19 07:39:19;;;;;;;8.77;4.85;;;;;;;23.00;51.44;101267.22;5032478;28;20099;-80
2023/07/19 07:41:44;;;;;;;7.70;4.53;;;;;;;23.04;51.32;101257.88;5040992;28;20090;-80
2023/07/19 07:44:10;;;;;;;9.98;5.20;;;;;;;23.04;51.20;101255.16;5026642;28;20480;-80
2023/07/19 07:46:35;;;;;;;10.57;5.13;;;;;;;23.00;50.77;101253.72;5020856;28;20033;-80
2023/07/19 07:49:01;;;;;;;9.82;5.22;;;;;;;23.32;50.75;101259.03;5026650;28;20044;-80
2023/07/19 07:51:29;;;;;;;6.65;4.22;;;;;;;23.70;49.56;101252.13;5027952;28;20111;-79
2023/07/19 07:53:54;;;;;;;5.30;3.70;;;;;;;23.89;48.23;101254.03;5020652;28;20025;-80
2023/07/19 07:56:20;;;;;;;8.27;4.35;;;;;;;23.54;49.92;101251.72;5035732;28;20047;-80
2023/07/19 07:58:45;;;;;;;7.63;4.40;;;;;;;23.41;50.05;101255.53;5022225;28;20417;-80
2023/07/19 08:01:10;;;;;;;10.00;3.60;;;;;;;23.20;49.86;101252.00;5025902;28;20037;-80
2023/07/19 08:03:36;;;;;;;4.95;3.72;;;;;;;23.28;50.02;101252.19;5028435;28;20065;-80
2023/07/19 08:06:04;;;;;;;6.82;2.83;;;;;;;23.48;48.28;101254.97;5030672;28;20365;-80
2023/07/19 08:08:29;;;;;;;8.85;3.28;;;;;;;23.70;48.01;101253.97;5034728;28;20025;-80
2023/07/19 08:10:55;;;;;;;6.88;3.22;;;;;;;24.23;47.36;101246.41;5037243;28;20159;-80
2023/07/19 08:13:20;;;;;;;5.50;2.83;;;;;;;24.89;45.61;101251.97;5040133;28;20053;-81
2023/07/19 08:15:46;;;;;;;6.18;3.00;;;;;;;25.16;45.06;101245.00;5027886;28;20027;-79
2023/07/19 08:18:11;;;;;;;11.02;3.17;;;;;;;25.49;45.33;101234.63;5033869;28;20033;-81
2023/07/19 08:20:36;;;;;;;5.57;2.92;;;;;;;26.57;42.46;101240.13;5024624;28;20591;-79
2023/07/19 08:23:02;;;;;;;8.15;3.13;;;;;;;26.69;41.96;101233.47;5025036;28;20026;-80
2023/07/19 08:25:27;;;;;;;7.07;2.40;;;;;;;26.96;39.82;101229.78;5034319;28;20038;-80
2023/07/19 08:27:52;;;;;;;4.80;2.47;;;;;;;27.09;40.64;101234.81;5032926;28;20380;-80
2023/07/19 08:30:18;;;;;;;5.30;2.50;;;;;;;26.81;40.61;101231.34;5022251;28;20480;-80
2023/07/19 08:32:45;;;;;;;7.05;2.80;;;;;;;27.44;38.92;101235.69;5028057;28;20018;-80
2023/07/19 08:35:10;;;;;;;5.50;2.38;;;;;;;27.21;38.44;101229.97;5035719;28;20059;-80
2023/07/19 08:37:37;;;;;;;3.85;2.40;;;;;;;26.76;39.01;101236.38;5027684;28;20496;-80
2023/07/19 08:40:03;;;;;;;3.95;2.10;;;;;;;26.37;39.26;101238.56;5035727;28;20024;-80
2023/07/19 08:42:28;;;;;;;4.05;1.90;;;;;;;26.19;40.85;101239.38;5035701;28;20408;-80
2023/07/19 08:44:54;;;;;;;7.00;2.35;;;;;;;26.09;39.33;101241.31;5033294;28;20503;-79
2023/07/19 08:47:19;;;;;;;6.00;1.88;;;;;;;25.93;41.21;101242.00;5040548;28;20028;-80
2023/07/19 08:49:46;;;;;;;5.72;2.40;;;;;;;25.67;42.46;101239.09;5031103;28;20021;-79
2023/07/19 08:52:12;;;;;;;8.00;2.53;;;;;;;25.35;43.03;101241.38;5024869;28;20075;-79
2023/07/19 08:54:38;;;;;;;6.07;2.80;;;;;;;25.39;42.81;101240.09;5019870;28;20033;-80
2023/07/19 08:57:04;;;;;;;8.25;2.80;;;;;;;25.29;43.49;101241.97;5021771;28;20028;-79
2023/07/19 08:59:30;;;;;;;9.00;3.60;;;;;;;25.15;43.94;101240.59;5019757;28;20033;-80
2023/07/19 09:01:55;;;;;;;5.85;2.65;;;;;;;25.26;43.91;101243.09;5018807;28;20030;-79
2023/07/19 09:04:20;;;;;;;6.07;2.97;;;;;;;25.16;44.14;101247.69;5036154;28;20034;-80
2023/07/19 09:06:48;;;;;;;6.60;2.88;;;;;;;25.06;44.56;101245.00;5027438;28;20025;-80
2023/07/19 09:09:13;;;;;;;4.93;2.80;;;;;;;25.03;45.22;101247.13;5027423;28;20026;-80
2023/07/19 09:11:51;;;;;;;7.15;3.03;;;;;;;25.16;44.37;101250.41;5026636;28;20024;-80
2023/07/19 09:14:17;;;;;;;5.38;3.20;;;;;;;25.13;44.15;101246.16;5024571;28;20025;-80
2023/07/19 09:16:44;;;;;;;7.78;3.63;;;;;;;25.26;44.35;101243.09;5020667;28;20021;-79
2023/07/19 09:19:10;;;;;;;8.40;3.05;;;;;;;25.53;43.86;101242.31;5020891;28;20026;-79
2023/07/19 09:21:42;;;;;;;6.00;3.30;;;;;;;25.55;43.46;101242.16;5026330;28;20032;-80
2023/07/19 09:24:08;;;;;;;8.48;3.53;;;;;;;25.87;44.15;101242.59;5031340;28;20025;-80
2023/07/19 09:26:52;;;;;;;5.88;3.45;;;;;;;25.70;44.26;101248.81;5020872;28;20485;-80
2023/07/19 09:29:19;;;;;;;6.13;3.15;;;;;;;25.25;43.92;101241.41;5018707;28;20065;-80
2023/07/19 09:31:58;;;;;;;9.20;3.03;;;;;;;25.62;44.38;101240.56;5021414;28;20077;-80
2023/07/19 09:34:34;;;;;;;7.60;2.85;;;;;;;25.92;43.89;101240.28;5021753;28;20496;-79
2023/07/19 09:37:00;;;;;;;6.38;3.30;;;;;;;25.91;43.45;101237.72;5027761;28;20365;-80
2023/07/19 09:39:26;;;;;;;8.57;3.22;;;;;;;26.04;42.84;101240.06;5023528;28;20025;-80
2023/07/19 09:41:53;;;;;;;7.20;3.53;;;;;;;25.84;43.19;101240.19;5025344;28;20076;-81
2023/07/19 09:44:18;;;;;;;6.10;3.47;;;;;;;26.03;44.24;101241.09;5031025;28;20455;-81
2023/07/19 09:46:45;;;;;;;5.63;3.22;;;;;;;25.92;44.58;101245.69;5016192;28;20500;-81
2023/07/19 09:49:12;;;;;;;7.18;3.00;;;;;;;25.67;44.73;101240.97;5027772;28;20013;-80
2023/07/19 09:51:41;;;;;;;9.63;3.80;;;;;;;25.71;45.08;101245.09;5031405;28;20376;-80
2023/07/19 09:54:14;;;;;;;8.20;2.90;;;;;;;25.90;44.80;101234.16;5025052;28;20060;-79
2023/07/19 09:56:40;;;;;;;5.50;2.85;;;;;;;25.98;43.75;101235.28;5026924;28;20076;-79
2023/07/19 09:59:12;;;;;;;4.30;2.92;;;;;;;26.18;43.95;101236.84;5033298;28;20519;-80
2023/07/19 10:01:38;;;;;;;5.03;3.05;;;;;;;26.50;44.17;101230.91;5035899;28;20554;-81
2023/07/19 10:04:21;;;;;;;7.50;3.13;;;;;;;26.96;42.70;101226.22;5021459;28;20026;-80
2023/07/19 10:06:47;;;;;;;9.07;2.90;;;;;;;27.04;42.85;101230.81;5027917;28;20108;-79
2023/07/19 10:09:24;;;;;;;7.85;2.53;;;;;;;27.10;42.23;101233.81;5026338;28;20099;-80
2023/07/19 10:11:49;;;;;;;5.97;2.55;;;;;;;26.70;42.09;101231.59;5038095;28;20030;-80
2023/07/19 10:14:25;;;;;;;6.60;2.72;;;;;;;26.34;43.59;101245.13;5020304;28;20025;-80
2023/07/19 10:16:58;;;;;;;5.18;2.60;;;;;;;26.43;43.03;101238.81;5022096;28;20089;-79
2023/07/19 10:19:24;;;;;;;5.80;2.30;;;;;;;26.69;43.11;101232.63;5027469;28;20619;-79
2023/07/19 10:22:04;;;;;;;10.52;3.22;;;;;;;27.03;42.76;101232.69;5034226;28;20526;-80
2023/07/19 10:24:35;;;;;;;6.72;2.63;;;;;;;26.88;42.62;101237.84;5028888;28;20045;-80
2023/07/19 10:27:05;;;;;;;4.70;2.45;;;;;;;26.60;43.00;101241.69;5019590;28;20493;-80
2023/07/19 10:29:42;;;;;;;5.30;2.40;;;;;;;26.25;43.07;101246.06;5018517;28;20032;-80
2023/07/19 10:32:07;;;;;;;7.43;2.67;;;;;;;25.90;44.35;101239.59;5029407;28;20510;-80
2023/07/19 10:34:33;;;;;;;8.70;2.50;;;;;;;25.91;44.22;101241.28;5021011;28;20029;-80
2023/07/19 10:37:06;;;;;;;4.20;2.20;;;;;;;26.14;44.41;101241.72;5024337;28;20030;-79
2023/07/19 10:39:32;;;;;;;5.32;2.17;;;;;;;26.16;42.77;101239.72;5022239;28;20109;-80
2023/07/19 10:41:58;;;;;;;3.67;2.00;;;;;;;26.37;42.18;101247.53;5029717;28;20052;-80
2023/07/19 10:44:27;;;;;;;3.55;2.35;;;;;;;26.79;41.41;101238.78;5020616;28;20021;-80
2023/07/19 10:46:54;;;;;;;9.13;2.25;;;;;;;27.14;40.28;101226.16;5020664;28;20045;-80
2023/07/19 10:49:22;;;;;;;5.40;2.42;;;;;;;27.33;40.27;101236.81;5028508;28;20115;-80
2023/07/19 10:51:55;;;;;;;5.03;2.20;;;;;;;27.53;39.34;101231.16;5022502;28;20481;-80
2023/07/19 10:54:21;;;;;;;5.43;1.90;;;;;;;27.78;40.28;101230.25;5022268;28;20921;-80
2023/07/19 10:56:49;;;;;;;3.88;1.70;;;;;;;28.17;38.59;101224.28;5026169;28;20102;-80
2023/07/19 10:59:14;;;;;;;4.68;2.00;;;;;;;28.28;37.57;101220.38;5031036;28;20116;-80
2023/07/19 11:01:40;;;;;;;4.70;1.85;;;;;;;28.50;37.60;101232.50;5033161;28;20164;-80
2023/07/19 11:04:07;;;;;;;2.72;1.83;;;;;;;28.85;37.44;101226.69;5014292;28;20112;-80
2023/07/19 11:06:54;;;;;;;5.15;2.15;;;;;;;29.44;37.22;101229.16;5012823;28;20488;-80
2023/07/19 11:09:19;;;;;;;3.70;1.70;;;;;;;29.13;35.93;101220.91;5025824;28;20028;-79
2023/07/19 11:11:45;;;;;;;2.83;1.63;;;;;;;28.31;36.29;101226.34;5025944;28;20029;-79
2023/07/19 11:14:33;;;;;;;4.65;1.92;;;;;;;27.61;38.47;101226.59;5036450;28;20032;-79
2023/07/19 11:16:59;;;;;;;4.13;1.85;;;;;;;27.07;40.53;101235.94;5018788;28;20420;-80
2023/07/19 11:19:32;;;;;;;3.47;1.90;;;;;;;26.64;43.04;101243.09;5027797;28;20025;-81
2023/07/19 11:21:57;;;;;;;8.05;2.25;;;;;;;25.99;48.62;101248.66;5020476;28;20036;-84